Time;durP1;ratioP1;P1;durP2;ratioP2;P2;SDS_P1;SDS_P2;PMS_P1;PMS_P2;Temp;Humidity;BMP_temperature;BMP_pressure;BME280_temperature;BME280_humidity;BME280_pressure;Samples;Min_cycle;Max_cycle;Signal;HPM_P1;HPM_P2
2022/02/06 00:00:00;;;;;;;;;;;;;;;24.73;31.29;97761.91;172468;28;1145;-56
2022/02/06 00:00:06;;;;;;;;;;;;;;;24.73;31.43;97767.19;172460;28;876;-56
2022/02/06 00:00:12;;;;;;;;;;;;;;;24.71;31.55;97758.53;172619;28;1271;-56
2022/02/06 00:00:19;;;;;;;;;;;;;;;24.71;31.31;97758.53;172644;28;833;-56
2022/02/06 00:00:27;;;;;;;;;;;;;;;24.71;31.27;97762.97;172571;28;1196;-56
2022/02/06 00:00:32;;;;;;;;;;;;;;;24.70;31.51;97766.56;172588;28;834;-56
2022/02/06 00:00:38;;;;;;;;;;;;;;;24.70;31.42;97762.13;172570;28;1129;-56
2022/02/06 00:00:44;;;;;;;;;;;;;;;24.71;31.55;97762.97;172644;28;825;-57
2022/02/06 00:00:50;;;;;;;;;;;;;;;24.70;31.19;97761.28;172642;28;1244;-56
2022/02/06 00:00:59;;;;;;;;;;;;;;;24.69;31.32;97767.50;171985;28;791;-57
2022/02/06 00:01:07;;;;;;;;;;;;;;;24.65;31.62;97758.16;171909;28;826;-55
2022/02/06 00:01:12;;;;;;;;;;;;;;;24.66;31.69;97765.09;172446;28;1386;-54
2022/02/06 00:01:18;;;;;;;;;;;;;;;24.65;31.41;97756.34;172425;28;1808;-56
2022/02/06 00:01:23;;;;;;;;;;;;;;;24.65;31.41;97760.78;172237;28;946;-56
2022/02/06 00:01:30;;;;;;;;;;;;;;;24.67;31.63;97764.16;171940;28;834;-56
2022/02/06 00:01:37;;;;;;;;;;;;;;;24.68;31.62;97758.75;172530;28;1193;-55
2022/02/06 00:01:42;;;;;;;;;;;;;;;24.68;31.45;97756.13;171839;28;929;-55
2022/02/06 00:01:48;;;;;;;;;;;;;;;24.68;31.28;97758.75;172491;28;1284;-57
2022/02/06 00:01:53;;;;;;;;;;;;;;;24.67;31.47;97759.72;172550;28;906;-57
2022/02/06 00:01:58;;;;;;;;;;;;;;;24.67;31.25;97756.25;172504;28;1101;-54
2022/02/06 00:02:03;;;;;;;;;;;;;;;24.66;31.33;97758.03;172003;28;4482;-56
2022/02/06 00:02:15;;;;;;;;;;;;;;;24.65;31.46;97759.00;172415;28;1065;-54
2022/02/06 00:02:25;;;;;;;;;;;;;;;24.64;31.36;97752.00;172625;28;1133;-56
2022/02/06 00:02:35;;;;;;;;;;;;;;;24.64;31.57;97754.66;172670;28;857;-56
2022/02/06 00:02:44;;;;;;;;;;;;;;;24.65;31.40;97755.53;171973;28;878;-57
2022/02/06 00:02:51;;;;;;;;;;;;;;;24.64;31.47;97751.16;172655;28;889;-56
2022/02/06 00:02:56;;;;;;;;;;;;;;;24.65;31.53;97758.16;172066;28;1077;-57
2022/02/06 00:03:02;;;;;;;;;;;;;;;24.66;31.54;97755.41;172344;28;1159;-54
2022/02/06 00:03:07;;;;;;;;;;;;;;;24.68;31.42;97757.94;172554;28;950;-56
2022/02/06 00:03:14;;;;;;;;;;;;;;;24.69;31.54;97755.16;172667;28;805;-56
2022/02/06 00:03:21;;;;;;;;;;;;;;;24.72;31.64;97759.38;172599;28;1216;-56
2022/02/06 00:03:27;;;;;;;;;;;;;;;24.70;31.24;97759.50;172561;28;790;-55
2022/02/06 00:03:32;;;;;;;;;;;;;;;24.70;31.44;97756.84;172513;28;955;-54
2022/02/06 00:03:37;;;;;;;;;;;;;;;24.71;31.65;97758.53;172684;28;841;-56
2022/02/06 00:03:43;;;;;;;;;;;;;;;24.71;31.52;97755.91;172599;28;1224;-56
2022/02/06 00:03:48;;;;;;;;;;;;;;;24.70;31.59;97756.84;172657;28;940;-57
2022/02/06 00:03:57;;;;;;;;;;;;;;;24.70;31.24;97756.84;172598;28;960;-56
2022/02/06 00:04:03;;;;;;;;;;;;;;;24.68;31.55;97756.13;172239;28;1061;-56
2022/02/06 00:04:08;;;;;;;;;;;;;;;24.70;31.44;97756.00;172461;28;895;-56
2022/02/06 00:04:14;;;;;;;;;;;;;;;24.68;31.36;97758.75;172693;28;963;-56
2022/02/06 00:04:19;;;;;;;;;;;;;;;24.65;31.62;97759.00;172585;28;1121;-57
2022/02/06 00:04:24;;;;;;;;;;;;;;;24.63;31.44;97750.31;172686;28;1020;-56
2022/02/06 00:04:29;;;;;;;;;;;;;;;24.65;31.67;97758.16;172613;28;1126;-56
2022/02/06 00:04:35;;;;;;;;;;;;;;;24.65;31.53;97748.44;172605;28;901;-56
2022/02/06 00:04:42;;;;;;;;;;;;;;;24.67;31.68;97762.34;172437;28;1393;-54
2022/02/06 00:04:48;;;;;;;;;;;;;;;24.67;31.66;97756.25;172492;28;941;-56
2022/02/06 00:04:54;;;;;;;;;;;;;;;24.67;31.43;97758.88;172548;28;897;-56
2022/02/06 00:05:00;;;;;;;;;;;;;;;24.65;31.36;97760.78;172477;28;1081;-55
2022/02/06 00:05:05;;;;;;;;;;;;;;;24.65;31.37;97758.16;172422;28;1006;-56
2022/02/06 00:05:11;;;;;;;;;;;;;;;24.63;31.78;97757.41;172561;28;834;-56
2022/02/06 00:05:17;;;;;;;;;;;;;;;24.63;31.70;97754.75;172611;28;1204;-57
2022/02/06 00:05:22;;;;;;;;;;;;;;;24.64;31.69;97759.09;172680;28;760;-57
2022/02/06 00:05:27;;;;;;;;;;;;;;;24.64;31.42;97756.44;172634;28;869;-56
2022/02/06 00:05:32;;;;;;;;;;;;;;;24.65;31.39;97753.72;172655;28;845;-57
2022/02/06 00:05:38;;;;;;;;;;;;;;;24.65;31.51;97750.25;172684;28;844;-56
2022/02/06 00:05:43;;;;;;;;;;;;;;;24.66;31.35;97759.84;172055;28;1247;-58
2022/02/06 00:05:49;;;;;;;;;;;;;;;24.65;31.55;97755.53;172040;28;936;-57
2022/02/06 00:05:54;;;;;;;;;;;;;;;24.64;31.73;97754.66;172623;28;998;-55
2022/02/06 00:06:01;;;;;;;;;;;;;;;24.65;31.53;97756.34;172478;28;1061;-54
2022/02/06 00:06:07;;;;;;;;;;;;;;;24.64;31.58;97752.00;172140;28;4449;-56
2022/02/06 00:06:12;;;;;;;;;;;;;;;24.65;31.63;97755.53;172605;28;869;-57
2022/02/06 00:06:17;;;;;;;;;;;;;;;24.66;31.49;97755.41;172554;28;1153;-56
2022/02/06 00:06:23;;;;;;;;;;;;;;;24.67;31.68;97757.09;172678;28;806;-55
2022/02/06 00:06:31;;;;;;;;;;;;;;;24.68;31.27;97755.28;172597;28;1145;-56
2022/02/06 00:06:36;;;;;;;;;;;;;;;24.68;31.28;97756.13;172642;28;834;-57
2022/02/06 00:06:41;;;;;;;;;;;;;;;24.69;31.35;97760.44;172601;28;1090;-54
2022/02/06 00:06:47;;;;;;;;;;;;;;;24.70;31.52;97754.22;172619;28;889;-56
2022/02/06 00:06:53;;;;;;;;;;;;;;;24.69;31.22;97759.59;172604;28;1231;-56
2022/02/06 00:06:58;;;;;;;;;;;;;;;24.68;31.26;97756.13;172638;28;892;-57
2022/02/06 00:07:03;;;;;;;;;;;;;;;24.69;31.61;97755.16;172036;28;1156;-56
2022/02/06 00:07:09;;;;;;;;;;;;;;;24.69;31.42;97755.16;172515;28;783;-55
2022/02/06 00:07:14;;;;;;;;;;;;;;;24.68;31.63;97753.50;172587;28;958;-56
2022/02/06 00:07:19;;;;;;;;;;;;;;;24.67;31.72;97754.44;172652;28;778;-55
2022/02/06 00:07:24;;;;;;;;;;;;;;;24.66;31.81;97758.03;172648;28;912;-56
2022/02/06 00:07:30;;;;;;;;;;;;;;;24.65;31.41;97759.00;172609;28;1184;-56
2022/02/06 00:07:35;;;;;;;;;;;;;;;24.66;31.73;97755.41;172630;28;850;-56
2022/02/06 00:07:41;;;;;;;;;;;;;;;24.68;31.60;97757.94;172235;28;1156;-56
2022/02/06 00:07:47;;;;;;;;;;;;;;;24.68;31.62;97757.94;172650;28;873;-56
2022/02/06 00:07:53;;;;;;;;;;;;;;;24.69;31.51;97756.97;172634;28;1193;-57
2022/02/06 00:08:01;;;;;;;;;;;;;;;24.70;31.60;97759.50;172610;28;889;-57
2022/02/06 00:08:10;;;;;;;;;;;;;;;24.71;31.54;97747.16;172202;28;969;-56
2022/02/06 00:08:16;;;;;;;;;;;;;;;24.73;31.58;97761.09;172462;28;1086;-57
2022/02/06 00:08:21;;;;;;;;;;;;;;;24.73;31.25;97756.66;172743;28;873;-55
2022/02/06 00:08:26;;;;;;;;;;;;;;;24.73;31.43;97755.81;172534;28;1181;-55
2022/02/06 00:08:32;;;;;;;;;;;;;;;24.73;31.54;97761.91;172671;28;897;-57
2022/02/06 00:08:39;;;;;;;;;;;;;;;24.73;31.38;97754.00;172539;28;1018;-55
2022/02/06 00:08:44;;;;;;;;;;;;;;;24.73;31.26;97753.16;172747;28;931;-56
2022/02/06 00:08:49;;;;;;;;;;;;;;;24.71;31.53;97755.91;172589;28;1223;-59
2022/02/06 00:08:55;;;;;;;;;;;;;;;24.72;31.40;97754.94;172666;28;941;-57
2022/02/06 00:09:00;;;;;;;;;;;;;;;24.71;31.28;97758.53;172370;28;1113;-54
2022/02/06 00:09:05;;;;;;;;;;;;;;;24.73;31.44;97754.00;172516;28;845;-54
2022/02/06 00:09:11;;;;;;;;;;;;;;;24.74;31.24;97754.84;172645;28;510;-56
2022/02/06 00:09:16;;;;;;;;;;;;;;;24.72;31.63;97754.09;172006;28;865;-56
2022/02/06 00:09:21;;;;;;;;;;;;;;;24.69;31.38;97755.16;171977;28;881;-57
2022/02/06 00:09:26;;;;;;;;;;;;;;;24.67;31.38;97751.81;172366;28;1173;-55
2022/02/06 00:09:31;;;;;;;;;;;;;;;24.67;31.53;97750.97;172625;28;893;-56
2022/02/06 00:09:38;;;;;;;;;;;;;;;24.66;31.53;97752.75;172633;28;1180;-57
2022/02/06 00:09:45;;;;;;;;;;;;;;;24.67;31.36;97757.09;172691;28;876;-57
2022/02/06 00:09:50;;;;;;;;;;;;;;;24.69;31.26;97752.53;172610;28;1160;-57
2022/02/06 00:09:56;;;;;;;;;;;;;;;24.69;31.22;97751.69;172708;28;826;-57
2022/02/06 00:10:01;;;;;;;;;;;;;;;24.67;31.63;97750.97;172016;28;4093;-55
2022/02/06 00:10:07;;;;;;;;;;;;;;;24.67;31.43;97750.97;172495;28;1019;-57
2022/02/06 00:10:12;;;;;;;;;;;;;;;24.67;31.41;97745.69;172501;28;1266;-56
2022/02/06 00:10:17;;;;;;;;;;;;;;;24.66;31.37;97752.75;172681;28;774;-56
2022/02/06 00:10:22;;;;;;;;;;;;;;;24.67;31.32;97749.16;172639;28;1101;-56
2022/02/06 00:10:28;;;;;;;;;;;;;;;24.65;31.44;97743.19;172597;28;814;-55
2022/02/06 00:10:33;;;;;;;;;;;;;;;24.67;31.38;97746.53;172610;28;814;-56
2022/02/06 00:10:38;;;;;;;;;;;;;;;24.67;31.50;97746.53;172631;28;1263;-56
2022/02/06 00:10:43;;;;;;;;;;;;;;;24.68;31.71;97748.22;172672;28;807;-56
2022/02/06 00:10:48;;;;;;;;;;;;;;;24.69;31.54;97749.91;172618;28;1184;-56
2022/02/06 00:10:54;;;;;;;;;;;;;;;24.68;31.28;97750.00;172657;28;810;-57
2022/02/06 00:10:59;;;;;;;;;;;;;;;24.68;31.22;97750.84;172505;28;1027;-55
2022/02/06 00:11:05;;;;;;;;;;;;;;;24.68;31.19;97748.22;171945;28;1039;-56
2022/02/06 00:11:10;;;;;;;;;;;;;;;24.67;31.36;97751.81;172513;28;1128;-56
2022/02/06 00:11:15;;;;;;;;;;;;;;;24.68;31.55;97748.22;172723;28;885;-56
2022/02/06 00:11:20;;;;;;;;;;;;;;;24.67;31.42;97751.81;172614;28;1165;-56
2022/02/06 00:11:25;;;;;;;;;;;;;;;24.68;31.32;97752.66;172621;28;968;-56
2022/02/06 00:11:31;;;;;;;;;;;;;;;24.69;31.58;97749.06;172690;28;750;-57
2022/02/06 00:11:36;;;;;;;;;;;;;;;24.68;31.48;97748.22;172598;28;1181;-57
2022/02/06 00:11:41;;;;;;;;;;;;;;;24.69;31.55;97747.25;172682;28;877;-55
2022/02/06 00:11:46;;;;;;;;;;;;;;;24.69;31.26;97749.06;172583;28;1093;-55
2022/02/06 00:11:51;;;;;;;;;;;;;;;24.69;31.46;97746.41;172659;28;892;-56
2022/02/06 00:11:57;;;;;;;;;;;;;;;24.69;31.58;97752.53;172510;28;1129;-58
2022/02/06 00:12:02;;;;;;;;;;;;;;;24.69;31.49;97746.41;172504;28;1207;-56
2022/02/06 00:12:07;;;;;;;;;;;;;;;24.69;31.40;97744.63;172445;28;992;-56
2022/02/06 00:12:13;;;;;;;;;;;;;;;24.72;31.24;97747.03;171962;28;784;-56
2022/02/06 00:12:18;;;;;;;;;;;;;;;24.73;31.36;97747.91;172052;28;834;-56
2022/02/06 00:12:23;;;;;;;;;;;;;;;24.73;31.40;97745.25;172595;28;1140;-56
2022/02/06 00:12:29;;;;;;;;;;;;;;;24.74;31.43;97750.41;172608;28;805;-57
2022/02/06 00:12:34;;;;;;;;;;;;;;;24.74;31.45;97750.41;172511;28;1428;-52
2022/02/06 00:12:39;;;;;;;;;;;;;;;24.73;31.21;97747.91;172562;28;898;-55
2022/02/06 00:12:44;;;;;;;;;;;;;;;24.73;31.26;97745.25;172392;28;1179;-56
2022/02/06 00:12:49;;;;;;;;;;;;;;;24.73;31.44;97746.09;172496;28;799;-56
2022/02/06 00:12:55;;;;;;;;;;;;;;;24.74;31.58;97747.78;172586;28;963;-57
2022/02/06 00:13:00;;;;;;;;;;;;;;;24.73;31.25;97756.66;172415;28;1164;-56
2022/02/06 00:13:05;;;;;;;;;;;;;;;24.74;31.31;97754.84;172552;28;885;-56
2022/02/06 00:13:10;;;;;;;;;;;;;;;24.74;31.49;97747.78;172497;28;1160;-56
2022/02/06 00:13:16;;;;;;;;;;;;;;;24.73;31.31;97747.91;172664;28;936;-56
2022/02/06 00:13:21;;;;;;;;;;;;;;;24.73;31.24;97751.38;172604;28;1145;-56
2022/02/06 00:13:29;;;;;;;;;;;;;;;24.71;31.28;97747.16;172664;28;913;-56
2022/02/06 00:13:34;;;;;;;;;;;;;;;24.69;31.24;97749.91;172489;28;1906;-57
2022/02/06 00:13:39;;;;;;;;;;;;;;;24.70;31.39;97756.00;172682;28;833;-55
2022/02/06 00:13:44;;;;;;;;;;;;;;;24.68;31.41;97757.94;172572;28;978;-56
2022/02/06 00:13:49;;;;;;;;;;;;;;;24.67;31.40;97750.97;172647;28;968;-56
2022/02/06 00:13:56;;;;;;;;;;;;;;;24.66;31.27;97752.75;172596;28;1026;-55
2022/02/06 00:14:02;;;;;;;;;;;;;;;24.67;31.25;97750.97;171830;28;4462;-55
2022/02/06 00:14:07;;;;;;;;;;;;;;;24.66;31.56;97755.41;172258;28;1010;-56
2022/02/06 00:14:12;;;;;;;;;;;;;;;24.64;31.46;97756.44;172670;28;721;-56
2022/02/06 00:14:17;;;;;;;;;;;;;;;24.63;31.43;97758.25;172584;28;1141;-56
2022/02/06 00:14:22;;;;;;;;;;;;;;;24.64;31.55;97752.00;172684;28;797;-56
2022/02/06 00:14:27;;;;;;;;;;;;;;;24.63;31.35;97752.13;172642;28;952;-54
2022/02/06 00:14:34;;;;;;;;;;;;;;;24.62;31.56;97753.91;172612;28;1358;-56
2022/02/06 00:14:39;;;;;;;;;;;;;;;24.62;31.43;97755.72;172690;28;810;-56
2022/02/06 00:14:44;;;;;;;;;;;;;;;24.63;31.53;97754.75;172628;28;1026;-54
2022/02/06 00:14:49;;;;;;;;;;;;;;;24.63;31.40;97754.75;172680;28;921;-56
2022/02/06 00:14:54;;;;;;;;;;;;;;;24.63;31.37;97749.50;172584;28;959;-57
2022/02/06 00:15:00;;;;;;;;;;;;;;;24.60;31.45;97750.56;172467;28;1139;-54
2022/02/06 00:15:05;;;;;;;;;;;;;;;24.61;31.50;97756.69;172396;28;1071;-56
2022/02/06 00:15:10;;;;;;;;;;;;;;;24.61;31.77;97754.88;172589;28;880;-55
2022/02/06 00:15:18;;;;;;;;;;;;;;;24.62;31.44;97755.72;172611;28;1183;-56
2022/02/06 00:15:23;;;;;;;;;;;;;;;24.62;31.65;97747.81;172698;28;821;-56
2022/02/06 00:15:29;;;;;;;;;;;;;;;24.62;31.36;97747.81;172619;28;1149;-56
2022/02/06 00:15:34;;;;;;;;;;;;;;;24.62;31.62;97746.00;172535;28;893;-58
2022/02/06 00:15:39;;;;;;;;;;;;;;;24.62;31.44;97753.09;172670;28;920;-56
2022/02/06 00:15:44;;;;;;;;;;;;;;;24.61;31.36;97748.75;172606;28;1003;-56
2022/02/06 00:15:49;;;;;;;;;;;;;;;24.63;31.49;97758.25;172692;28;881;-56
2022/02/06 00:15:55;;;;;;;;;;;;;;;24.64;31.47;97745.91;172616;28;1030;-56
2022/02/06 00:16:00;;;;;;;;;;;;;;;24.64;31.46;97752.00;172438;28;1152;-55
2022/02/06 00:16:05;;;;;;;;;;;;;;;24.65;31.50;97751.09;172408;28;1020;-57
2022/02/06 00:16:10;;;;;;;;;;;;;;;24.67;31.55;97754.44;172502;28;897;-55
2022/02/06 00:16:15;;;;;;;;;;;;;;;24.66;31.37;97747.50;172527;28;1149;-55
2022/02/06 00:16:20;;;;;;;;;;;;;;;24.66;31.61;97755.41;172637;28;901;-56
2022/02/06 00:16:26;;;;;;;;;;;;;;;24.66;31.57;97754.56;172615;28;885;-58
2022/02/06 00:16:31;;;;;;;;;;;;;;;24.64;31.46;97748.53;172402;28;1516;-57
2022/02/06 00:16:36;;;;;;;;;;;;;;;24.65;31.43;97750.25;171835;28;1545;-56
2022/02/06 00:16:42;;;;;;;;;;;;;;;24.65;31.63;97752.88;171892;28;1252;-56
2022/02/06 00:16:47;;;;;;;;;;;;;;;24.66;31.47;97747.50;171889;28;854;-57
2022/02/06 00:16:52;;;;;;;;;;;;;;;24.66;31.27;97749.28;171911;28;1201;-56
2022/02/06 00:16:57;;;;;;;;;;;;;;;24.68;31.66;97747.38;171856;28;813;-55
2022/02/06 00:17:02;;;;;;;;;;;;;;;24.68;31.35;97750.84;171642;28;1188;-55
2022/02/06 00:17:08;;;;;;;;;;;;;;;24.67;31.47;97754.44;171877;28;912;-56
2022/02/06 00:17:13;;;;;;;;;;;;;;;24.68;31.41;97750.00;171933;28;842;-55
2022/02/06 00:17:19;;;;;;;;;;;;;;;24.69;31.54;97755.16;171289;28;1052;-56
2022/02/06 00:17:28;;;;;;;;;;;;;;;24.70;31.54;97750.72;171283;28;944;-57
2022/02/06 00:17:33;;;;;;;;;;;;;;;24.72;31.36;97754.94;171230;28;912;-55
2022/02/06 00:17:38;;;;;;;;;;;;;;;24.73;31.38;97754.00;171367;28;1155;-56
2022/02/06 00:17:44;;;;;;;;;;;;;;;24.74;31.42;97757.50;171939;28;817;-56
2022/02/06 00:17:49;;;;;;;;;;;;;;;24.73;31.45;97755.81;171848;28;1165;-56
2022/02/06 00:17:54;;;;;;;;;;;;;;;24.71;31.51;97758.53;171895;28;882;-56
2022/02/06 00:18:00;;;;;;;;;;;;;;;24.70;31.50;97758.66;171247;28;5677;-57
2022/02/06 00:18:05;;;;;;;;;;;;;;;24.68;31.61;97750.84;171695;28;1137;-56
2022/02/06 00:18:10;;;;;;;;;;;;;;;24.68;31.32;97750.84;171843;28;798;-56
2022/02/06 00:18:15;;;;;;;;;;;;;;;24.69;31.39;97756.97;171896;28;1157;-56
2022/02/06 00:18:20;;;;;;;;;;;;;;;24.69;31.36;97759.59;171912;28;826;-56
2022/02/06 00:18:26;;;;;;;;;;;;;;;24.71;31.40;97753.25;171831;28;1229;-57
2022/02/06 00:18:31;;;;;;;;;;;;;;;24.72;31.58;97754.09;172376;28;908;-57
2022/02/06 00:18:38;;;;;;;;;;;;;;;24.73;31.36;97756.66;172588;28;1164;-57
2022/02/06 00:18:44;;;;;;;;;;;;;;;24.74;31.20;97749.56;172623;28;951;-56
2022/02/06 00:18:49;;;;;;;;;;;;;;;24.73;31.49;97746.09;172521;28;1191;-56
2022/02/06 00:18:54;;;;;;;;;;;;;;;24.73;31.31;97747.91;172688;28;805;-56
2022/02/06 00:19:00;;;;;;;;;;;;;;;24.74;31.37;97757.50;172417;28;1041;-55
2022/02/06 00:19:05;;;;;;;;;;;;;;;24.74;31.20;97753.06;172577;28;972;-55
2022/02/06 00:19:10;;;;;;;;;;;;;;;24.72;31.03;97749.66;172590;28;763;-54
2022/02/06 00:19:15;;;;;;;;;;;;;;;24.74;31.18;97755.69;172615;28;1153;-56
2022/02/06 00:19:20;;;;;;;;;;;;;;;24.73;31.12;97756.66;172608;28;995;-55
2022/02/06 00:19:26;;;;;;;;;;;;;;;24.71;31.32;97753.25;172510;28;1165;-57
2022/02/06 00:19:31;;;;;;;;;;;;;;;24.71;31.38;97761.16;172630;28;826;-55
2022/02/06 00:19:40;;;;;;;;;;;;;;;24.70;31.45;97756.00;172593;28;1097;-56
2022/02/06 00:19:45;;;;;;;;;;;;;;;24.68;31.49;97756.13;172129;28;1759;-57
2022/02/06 00:19:50;;;;;;;;;;;;;;;24.68;31.28;97753.50;172572;28;1125;-56
2022/02/06 00:19:55;;;;;;;;;;;;;;;24.68;31.54;97756.13;171980;28;948;-56
2022/02/06 00:20:01;;;;;;;;;;;;;;;24.69;31.34;97754.34;172087;28;1157;-56
2022/02/06 00:20:06;;;;;;;;;;;;;;;24.70;31.55;97758.66;172468;28;790;-55
2022/02/06 00:20:11;;;;;;;;;;;;;;;24.68;31.25;97753.50;172547;28;1215;-56
2022/02/06 00:20:17;;;;;;;;;;;;;;;24.69;31.20;97751.69;171993;28;805;-56
2022/02/06 00:20:26;;;;;;;;;;;;;;;24.67;31.41;97750.97;172073;28;1180;-56
2022/02/06 00:20:40;;;;;;;;;;;;;;;24.65;31.28;97748.44;172615;28;846;-56
2022/02/06 00:20:56;;;;;;;;;;;;;;;24.64;31.55;97749.38;172110;28;1054;-56
2022/02/06 00:21:07;;;;;;;;;;;;;;;24.64;31.34;97752.00;172315;28;1073;-54
2022/02/06 00:21:15;;;;;;;;;;;;;;;24.68;31.23;97750.00;172602;28;967;-57
2022/02/06 00:21:21;;;;;;;;;;;;;;;24.65;31.37;97751.09;172787;28;849;-56
2022/02/06 00:21:29;;;;;;;;;;;;;;;24.66;31.47;97757.19;172113;28;928;-55
2022/02/06 00:21:35;;;;;;;;;;;;;;;24.66;31.56;97754.56;172211;28;1145;-55
2022/02/06 00:21:41;;;;;;;;;;;;;;;24.67;31.49;97756.25;172079;28;871;-55
2022/02/06 00:21:46;;;;;;;;;;;;;;;24.67;31.38;97756.25;172243;28;1130;-57
2022/02/06 00:21:51;;;;;;;;;;;;;;;24.66;31.46;97752.75;172726;28;856;-56
2022/02/06 00:21:56;;;;;;;;;;;;;;;24.66;31.56;97755.41;172755;28;1144;-56
2022/02/06 00:22:04;;;;;;;;;;;;;;;24.66;31.63;97752.75;172107;28;4602;-55
2022/02/06 00:22:13;;;;;;;;;;;;;;;24.67;31.25;97750.97;172220;28;1073;-56
2022/02/06 00:22:29;;;;;;;;;;;;;;;24.66;31.60;97751.94;172818;28;880;-55
2022/02/06 00:22:42;;;;;;;;;;;;;;;24.65;31.50;97750.25;172310;28;1342;-53
2022/02/06 00:22:52;;;;;;;;;;;;;;;24.66;31.33;97752.75;172726;28;1148;-57
2022/02/06 00:23:01;;;;;;;;;;;;;;;24.66;31.62;97746.66;172405;28;1109;-57
2022/02/06 00:23:11;;;;;;;;;;;;;;;24.68;31.29;97752.66;172351;28;961;-57
2022/02/06 00:23:18;;;;;;;;;;;;;;;24.68;31.21;97750.84;172159;28;931;-56
2022/02/06 00:23:26;;;;;;;;;;;;;;;24.67;31.32;97756.25;172768;28;1231;-56
2022/02/06 00:23:32;;;;;;;;;;;;;;;24.67;31.71;97753.59;172627;28;1026;-57
2022/02/06 00:23:38;;;;;;;;;;;;;;;24.66;31.43;97754.56;172769;28;883;-56
2022/02/06 00:23:46;;;;;;;;;;;;;;;24.65;31.57;97750.25;172341;28;1568;-56
2022/02/06 00:23:54;;;;;;;;;;;;;;;24.66;31.61;97754.56;172604;28;860;-56
2022/02/06 00:24:00;;;;;;;;;;;;;;;24.66;31.47;97744.84;172615;28;1081;-56
2022/02/06 00:24:08;;;;;;;;;;;;;;;24.68;31.30;97750.00;172651;28;907;-56
2022/02/06 00:24:21;;;;;;;;;;;;;;;24.70;31.33;97748.09;172109;28;860;-57
2022/02/06 00:24:54;;;;;;;;;;;;;;;24.70;31.33;97751.56;172788;28;1089;-57
2022/02/06 00:25:44;;;;;;;;;;;;;;;24.66;31.52;97750.13;172157;28;936;-57
2022/02/06 00:26:01;;;;;;;;;;;;;;;24.62;31.67;97745.16;172427;28;951;-57
2022/02/06 00:26:40;;;;;;;;;;;;;;;24.62;31.54;97750.44;171859;28;1026;-55
2022/02/06 00:26:57;;;;;;;;;;;;;;;24.61;31.31;97736.41;171852;28;885;-56
2022/02/06 00:27:09;;;;;;;;;;;;;;;24.57;31.69;97742.88;171763;28;1098;-53
2022/02/06 00:27:28;;;;;;;;;;;;;;;24.57;31.69;97744.66;172030;28;1105;-55
2022/02/06 00:27:47;;;;;;;;;;;;;;;24.55;31.48;97744.75;171377;28;869;-56
2022/02/06 00:28:40;;;;;;;;;;;;;;;24.54;31.47;97743.09;171915;28;1113;-54
2022/02/06 00:28:43;;;;;;;;;;;;;;;24.55;31.46;97747.41;170670;29;822;-56
2022/02/06 00:29:13;;;;;;;;;;;;;;;24.54;31.44;97745.72;172034;28;975;-56
2022/02/06 00:29:25;;;;;;;;;;;;;;;24.57;31.45;97742.00;171380;28;841;-56
2022/02/06 00:30:09;;;;;;;;;;;;;;;24.57;31.66;97752.56;171735;28;1129;-56
2022/02/06 00:30:16;;;;;;;;;;;;;;;24.52;31.80;97742.34;170989;28;4466;-55
2022/02/06 00:31:20;;;;;;;;;;;;;;;24.59;31.70;97748.03;171408;28;919;-55
2022/02/06 00:31:31;;;;;;;;;;;;;;;24.61;31.38;97741.69;171093;28;1039;-57
2022/02/06 00:31:58;;;;;;;;;;;;;;;24.60;31.59;97752.34;171403;28;1522;-56
2022/02/06 00:32:07;;;;;;;;;;;;;;;24.60;31.45;97745.28;171176;28;849;-55
2022/02/06 00:32:27;;;;;;;;;;;;;;;24.60;31.35;97755.84;171986;28;1137;-57
2022/02/06 00:32:40;;;;;;;;;;;;;;;24.57;31.73;97748.16;171353;28;1006;-54
2022/02/06 00:32:50;;;;;;;;;;;;;;;24.59;31.75;97748.88;171967;28;1223;-56
2022/02/06 00:33:18;;;;;;;;;;;;;;;24.60;31.69;97750.56;171975;28;1097;-56
2022/02/06 00:34:29;;;;;;;;;;;;;;;24.61;31.76;97749.59;171472;28;876;-56
2022/02/06 00:35:55;;;;;;;;;;;;;;;24.51;31.81;97743.31;170055;29;676;-56
2022/02/06 00:38:22;;;;;;;;;;;;;;;24.41;31.69;97737.00;171512;28;4310;-56
2022/02/06 00:39:08;;;;;;;;;;;;;;;24.37;31.73;97743.44;172697;28;641;-56
2022/02/06 00:39:13;;;;;;;;;;;;;;;24.39;31.87;97738.91;172718;28;1152;-56
2022/02/06 00:39:18;;;;;;;;;;;;;;;24.39;31.90;97746.81;172694;28;991;-57
2022/02/06 00:39:24;;;;;;;;;;;;;;;24.40;31.79;97737.94;172826;28;852;-55
2022/02/06 00:39:29;;;;;;;;;;;;;;;24.41;31.73;97731.72;172679;28;1334;-57
2022/02/06 00:39:34;;;;;;;;;;;;;;;24.42;31.80;97743.97;172773;28;921;-56
2022/02/06 00:39:39;;;;;;;;;;;;;;;24.42;31.70;97742.19;172702;28;1164;-55
2022/02/06 00:39:44;;;;;;;;;;;;;;;24.43;31.65;97738.59;172751;28;853;-56
2022/02/06 00:39:49;;;;;;;;;;;;;;;24.44;31.94;97742.91;172744;28;1160;-55
2022/02/06 00:39:58;;;;;;;;;;;;;;;24.46;31.81;97741.00;172723;28;856;-56
2022/02/06 00:40:03;;;;;;;;;;;;;;;24.49;31.88;97742.59;172489;28;1080;-55
2022/02/06 00:40:09;;;;;;;;;;;;;;;24.47;31.47;97737.41;172014;28;802;-56
2022/02/06 00:40:16;;;;;;;;;;;;;;;24.49;31.87;97739.94;172616;28;962;-57
2022/02/06 00:40:29;;;;;;;;;;;;;;;24.47;31.84;97737.41;172854;28;834;-57
2022/02/06 00:41:12;;;;;;;;;;;;;;;24.52;31.61;97741.53;172007;28;1037;-55
2022/02/06 00:41:25;;;;;;;;;;;;;;;24.55;31.47;97746.56;172127;28;834;-56
2022/02/06 00:41:32;;;;;;;;;;;;;;;24.49;31.77;97745.22;172129;28;810;-56
2022/02/06 00:41:37;;;;;;;;;;;;;;;24.49;31.55;97743.44;172518;28;1184;-54
2022/02/06 00:41:43;;;;;;;;;;;;;;;24.49;31.85;97748.69;172794;28;793;-55
2022/02/06 00:41:48;;;;;;;;;;;;;;;24.48;31.70;97739.09;172744;28;1188;-57
2022/02/06 00:41:53;;;;;;;;;;;;;;;24.49;31.81;97738.16;172776;28;916;-55
2022/02/06 00:41:59;;;;;;;;;;;;;;;24.51;31.46;97745.94;172297;28;4437;-55
2022/02/06 00:42:04;;;;;;;;;;;;;;;24.52;31.62;97744.16;172449;28;1254;-56
2022/02/06 00:42:10;;;;;;;;;;;;;;;24.52;31.46;97737.09;172667;28;1133;-56
2022/02/06 00:42:15;;;;;;;;;;;;;;;24.50;31.70;97742.47;172806;28;493;-56
2022/02/06 00:42:20;;;;;;;;;;;;;;;24.51;31.82;97735.41;172725;28;924;-56
2022/02/06 00:42:25;;;;;;;;;;;;;;;24.54;31.60;97747.50;172752;28;1181;-55
2022/02/06 00:42:31;;;;;;;;;;;;;;;24.51;31.68;97740.69;172717;28;817;-56
2022/02/06 00:42:36;;;;;;;;;;;;;;;24.51;31.43;97743.31;172597;28;1391;-56
2022/02/06 00:42:41;;;;;;;;;;;;;;;24.53;31.55;97740.56;172757;28;722;-56
2022/02/06 00:42:46;;;;;;;;;;;;;;;24.53;31.62;97741.41;172727;28;1252;-56
2022/02/06 00:42:51;;;;;;;;;;;;;;;24.54;31.61;97742.25;172761;28;802;-56
2022/02/06 00:42:57;;;;;;;;;;;;;;;24.51;31.52;97738.03;172599;28;1215;-56
2022/02/06 00:43:02;;;;;;;;;;;;;;;24.54;31.70;97740.44;172035;28;1609;-56
2022/02/06 00:43:07;;;;;;;;;;;;;;;24.57;31.58;97739.38;172691;28;912;-56
2022/02/06 00:43:12;;;;;;;;;;;;;;;24.58;31.40;97736.66;172057;28;1270;-54
2022/02/06 00:43:17;;;;;;;;;;;;;;;24.58;31.39;97741.09;172094;28;901;-55
2022/02/06 00:43:23;;;;;;;;;;;;;;;24.59;31.57;97735.69;172457;28;1172;-57
2022/02/06 00:43:28;;;;;;;;;;;;;;;24.60;31.37;97747.94;172646;28;969;-56
2022/02/06 00:43:33;;;;;;;;;;;;;;;24.60;31.43;97734.75;172627;28;1172;-56
2022/02/06 00:43:39;;;;;;;;;;;;;;;24.61;31.49;97731.16;172791;28;955;-57
2022/02/06 00:43:44;;;;;;;;;;;;;;;24.59;31.40;97735.69;172764;28;1145;-57
2022/02/06 00:43:49;;;;;;;;;;;;;;;24.60;31.62;97740.00;172745;28;800;-56
2022/02/06 00:43:54;;;;;;;;;;;;;;;24.59;31.53;97740.13;172708;28;860;-56
2022/02/06 00:44:02;;;;;;;;;;;;;;;24.56;31.51;97735.91;172448;28;1260;-52
2022/02/06 00:44:07;;;;;;;;;;;;;;;24.55;31.51;97739.50;172703;28;1011;-55
2022/02/06 00:44:13;;;;;;;;;;;;;;;24.56;31.65;97740.34;172793;28;778;-58
2022/02/06 00:44:18;;;;;;;;;;;;;;;24.56;31.32;97743.81;172758;28;1197;-56
2022/02/06 00:44:24;;;;;;;;;;;;;;;24.59;31.75;97737.50;172724;28;974;-57
2022/02/06 00:44:29;;;;;;;;;;;;;;;24.58;31.63;97736.66;172742;28;790;-56
2022/02/06 00:44:34;;;;;;;;;;;;;;;24.60;31.30;97745.28;172716;28;1247;-54
2022/02/06 00:44:40;;;;;;;;;;;;;;;24.59;31.64;97743.59;172775;28;1015;-56
2022/02/06 00:44:45;;;;;;;;;;;;;;;24.59;31.58;97738.34;172683;28;1193;-57
2022/02/06 00:44:50;;;;;;;;;;;;;;;24.57;31.67;97742.88;172736;28;801;-56
2022/02/06 00:44:55;;;;;;;;;;;;;;;24.58;31.32;97741.94;172694;28;1035;-56